createdAt,value
2022-10-13T00:01:20.686Z,101397.41
2022-10-13T00:03:50.466Z,101394.72
2022-10-13T00:06:23.978Z,101391.31
2022-10-13T00:09:02.595Z,101384.47
2022-10-13T00:11:31.710Z,101377.38
2022-10-13T00:14:01.749Z,101377.91
2022-10-13T00:16:34.017Z,101374.34
2022-10-13T00:19:02.288Z,101375.03
2022-10-13T00:21:30.689Z,101373.78
2022-10-13T00:24:00.075Z,101376.06
2022-10-13T00:26:29.130Z,101380.13
2022-10-13T00:28:58.475Z,101373.25
2022-10-13T00:31:29.068Z,101376.97
2022-10-13T00:34:04.867Z,101386.41
2022-10-13T00:36:35.344Z,101373.56
2022-10-13T00:39:05.193Z,101375.84
2022-10-13T00:41:33.555Z,101357.88
2022-10-13T00:44:08.854Z,101372.19
2022-10-13T00:46:37.946Z,101369.50
2022-10-13T00:49:09.090Z,101367.16
2022-10-13T00:51:50.482Z,101362.13
2022-10-13T00:54:23.373Z,101354.41
2022-10-13T00:56:55.340Z,101362.03
2022-10-13T00:59:27.212Z,101368.88
2022-10-13T01:02:00.436Z,101364.75
2022-10-13T01:04:33.299Z,101369.56
2022-10-13T01:07:05.147Z,101357.84
2022-10-13T01:09:37.797Z,101362.78
2022-10-13T01:12:13.040Z,101354.81
2022-10-13T01:14:50.626Z,101364.53
2022-10-13T01:17:29.204Z,101366.66
2022-10-13T01:20:31.735Z,101367.88
2022-10-13T01:23:19.642Z,101365.03
2022-10-13T01:26:15.981Z,101357.59
2022-10-13T01:29:12.937Z,101363.28
2022-10-13T01:31:50.867Z,101350.75
2022-10-13T01:34:22.969Z,101351.19
2022-10-13T01:36:58.782Z,101353.91
2022-10-13T01:39:38.540Z,101344.97
2022-10-13T01:42:19.545Z,101349.06
2022-10-13T01:44:52.167Z,101338.03
2022-10-13T01:47:23.120Z,101347.31
2022-10-13T01:49:55.496Z,101343.72
2022-10-13T01:52:29.748Z,101339.59
2022-10-13T01:54:57.293Z,101340.31
2022-10-13T01:57:32.516Z,101339.59
2022-10-13T02:00:02.712Z,101336.59
2022-10-13T02:02:54.927Z,101325.31
2022-10-13T02:05:29.931Z,101317.50
2022-10-13T02:08:13.252Z,101332.94
2022-10-13T02:10:52.051Z,101320.59
2022-10-13T02:13:26.024Z,101317.59
2022-10-13T02:16:01.765Z,101327.41
2022-10-13T02:18:34.251Z,101321.06
2022-10-13T02:21:05.110Z,101313.28
2022-10-13T02:23:33.102Z,101314.69
2022-10-13T02:26:01.584Z,101311.03
2022-10-13T02:28:30.381Z,101307.25
2022-10-13T02:31:06.993Z,101306.69
2022-10-13T02:33:42.614Z,101299.47
2022-10-13T02:36:12.510Z,101307.16
2022-10-13T02:38:40.330Z,101308.81
2022-10-13T02:41:08.125Z,101304.34
2022-10-13T02:43:37.851Z,101295.59
2022-10-13T02:46:07.919Z,101308.53
2022-10-13T02:48:35.885Z,101311.59
2022-10-13T02:51:05.513Z,101302.84
2022-10-13T02:53:33.398Z,101302.53
2022-10-13T02:56:03.857Z,101285.06
2022-10-13T02:58:31.865Z,101304.38
2022-10-13T03:01:08.887Z,101299.00
2022-10-13T03:03:37.450Z,101294.22
2022-10-13T03:06:07.647Z,101292.84
2022-10-13T03:08:36.578Z,101296.81
2022-10-13T03:11:04.417Z,101287.16
2022-10-13T03:13:57.784Z,101284.47
2022-10-13T03:16:28.422Z,101283.03
2022-10-13T03:18:56.223Z,101288.38
2022-10-13T03:21:28.197Z,101282.38
2022-10-13T03:23:55.937Z,101282.88
2022-10-13T03:26:23.926Z,101287.09
2022-10-13T03:28:52.142Z,101286.84
2022-10-13T03:31:20.431Z,101286.59
2022-10-13T03:33:48.368Z,101280.13
2022-10-13T03:36:16.214Z,101283.16
2022-10-13T03:38:53.006Z,101283.47
2022-10-13T03:41:21.160Z,101288.69
2022-10-13T03:43:51.092Z,101289.56
2022-10-13T03:46:19.420Z,101289.75
2022-10-13T03:48:49.188Z,101268.28
2022-10-13T03:51:19.262Z,101291.59
2022-10-13T03:53:49.584Z,101290.88
2022-10-13T03:56:19.734Z,101281.72
2022-10-13T03:58:59.386Z,101283.81
2022-10-13T04:01:34.299Z,101291.38
2022-10-13T04:04:27.919Z,101291.81
2022-10-13T04:06:56.877Z,101287.53
2022-10-13T04:09:26.919Z,101289.91
2022-10-13T04:11:55.052Z,101283.81
2022-10-13T04:14:23.023Z,101288.84
2022-10-13T04:16:58.396Z,101291.53
2022-10-13T04:19:29.797Z,101291.38
2022-10-13T04:22:00.839Z,101282.22
2022-10-13T04:24:33.839Z,101281.47
2022-10-13T04:27:01.713Z,101277.19
2022-10-13T04:29:31.788Z,101284.13
2022-10-13T04:32:13.515Z,101276.72
2022-10-13T04:34:42.105Z,101275.88
2022-10-13T04:37:10.048Z,101258.16
2022-10-13T04:39:39.154Z,101262.38
2022-10-13T04:42:07.266Z,101267.25
2022-10-13T04:44:39.081Z,101264.25
2022-10-13T04:47:09.321Z,101255.72
2022-10-13T04:49:37.321Z,101254.94
2022-10-13T04:52:07.935Z,101258.00
2022-10-13T04:54:35.689Z,101245.00
2022-10-13T04:57:04.996Z,101255.56
2022-10-13T04:59:32.884Z,101259.28
2022-10-13T05:02:00.906Z,101251.00
2022-10-13T05:04:29.015Z,101251.53
2022-10-13T05:07:17.007Z,101229.34
2022-10-13T05:09:45.406Z,101242.66
2022-10-13T05:12:18.908Z,101246.09
2022-10-13T05:14:47.277Z,101245.19
2022-10-13T05:17:15.331Z,101234.41
2022-10-13T05:19:43.095Z,101237.38
2022-10-13T05:22:10.992Z,101245.09
2022-10-13T05:24:42.341Z,101247.59
2022-10-13T05:27:12.332Z,101221.56
2022-10-13T05:29:43.081Z,101239.75
2022-10-13T05:32:13.065Z,101240.66
2022-10-13T05:34:41.108Z,101238.13
2022-10-13T05:37:08.963Z,101250.13
2022-10-13T05:39:36.810Z,101244.38
2022-10-13T05:42:04.908Z,101247.38
2022-10-13T05:44:32.725Z,101245.16
2022-10-13T05:47:07.227Z,101238.34
2022-10-13T05:49:39.712Z,101239.59
2022-10-13T05:52:11.131Z,101239.13
2022-10-13T05:54:42.781Z,101231.44
2022-10-13T05:57:18.595Z,101232.50
2022-10-13T05:59:55.880Z,101220.06
2022-10-13T06:02:31.432Z,101226.00
2022-10-13T06:04:59.328Z,101226.91
2022-10-13T06:07:27.276Z,101222.00
2022-10-13T06:09:55.488Z,101224.88
2022-10-13T06:12:23.606Z,101215.78
2022-10-13T06:14:51.918Z,101226.38
2022-10-13T06:17:22.632Z,101225.22
2022-10-13T06:19:54.460Z,101220.81
2022-10-13T06:22:22.964Z,101218.22
2022-10-13T06:24:54.169Z,101220.28
2022-10-13T06:27:29.692Z,101216.03
2022-10-13T06:30:01.318Z,101187.88
2022-10-13T06:32:30.058Z,101202.88
2022-10-13T06:34:59.344Z,101204.34
2022-10-13T06:37:28.056Z,101210.16
2022-10-13T06:39:55.990Z,101210.63
2022-10-13T06:42:23.933Z,101214.91
2022-10-13T06:45:11.921Z,101208.81
2022-10-13T06:47:44.621Z,101215.09
2022-10-13T06:50:17.291Z,101212.88
2022-10-13T06:52:48.200Z,101224.16
2022-10-13T06:55:16.970Z,101212.91
2022-10-13T06:57:45.337Z,101212.47
2022-10-13T07:00:22.429Z,101212.19
2022-10-13T07:02:52.492Z,101217.28
2022-10-13T07:05:21.899Z,101203.22
2022-10-13T07:07:53.015Z,101214.34
2022-10-13T07:10:23.614Z,101207.41
2022-10-13T07:12:52.294Z,101210.97
2022-10-13T07:15:20.194Z,101204.59
2022-10-13T07:17:53.986Z,101219.00
2022-10-13T07:20:23.890Z,101210.72
2022-10-13T07:22:54.971Z,101210.59
2022-10-13T07:25:22.922Z,101195.19
2022-10-13T07:27:50.790Z,101196.84
2022-10-13T07:30:21.662Z,101188.66
2022-10-13T07:32:49.928Z,101200.25
2022-10-13T07:35:23.192Z,101196.69
2022-10-13T07:37:54.769Z,101197.88
2022-10-13T07:40:22.848Z,101196.97
2022-10-13T07:42:53.061Z,101205.28
2022-10-13T07:45:24.316Z,101199.28
2022-10-13T07:47:52.140Z,101187.84
2022-10-13T07:50:20.205Z,101202.84
2022-10-13T07:52:50.840Z,101196.75
2022-10-13T07:55:28.221Z,101198.84
2022-10-13T07:58:05.595Z,101188.16
2022-10-13T08:00:34.975Z,101188.00
2022-10-13T08:03:02.762Z,101180.56
2022-10-13T08:05:36.705Z,101173.72
2022-10-13T08:08:12.031Z,101183.22
2022-10-13T08:10:46.320Z,101167.75
2022-10-13T08:13:14.551Z,101178.72
2022-10-13T08:15:43.121Z,101173.31
2022-10-13T08:18:12.109Z,101174.59
2022-10-13T08:20:44.081Z,101170.22
2022-10-13T08:23:12.598Z,101166.81
2022-10-13T08:25:47.641Z,101162.25
2022-10-13T08:28:20.406Z,101168.41
2022-10-13T08:30:48.521Z,101169.84
2022-10-13T08:33:16.318Z,101157.47
2022-10-13T08:35:51.723Z,101166.72
2022-10-13T08:38:26.741Z,101161.78
2022-10-13T08:41:03.161Z,101148.63
2022-10-13T08:44:33.648Z,101166.41
2022-10-13T08:46:52.385Z,101177.63
2022-10-13T08:49:29.431Z,101166.53
2022-10-13T08:51:58.981Z,101159.16
2022-10-13T08:54:38.908Z,101158.88
2022-10-13T08:57:09.865Z,101175.88
2022-10-13T08:59:39.479Z,101180.66
2022-10-13T09:02:14.668Z,101177.69
2022-10-13T09:04:53.326Z,101148.09
2022-10-13T09:07:25.465Z,101158.44
2022-10-13T09:10:00.211Z,101168.56
2022-10-13T09:12:34.007Z,101171.34
2022-10-13T09:15:09.744Z,101176.84
2022-10-13T09:17:43.924Z,101177.38
2022-10-13T09:20:20.491Z,101182.75
2022-10-13T09:23:03.568Z,101176.53
2022-10-13T09:25:42.092Z,101177.69
2022-10-13T09:28:24.166Z,101174.94
2022-10-13T09:31:02.796Z,101167.75
2022-10-13T09:33:38.127Z,101161.16
2022-10-13T09:36:14.661Z,101163.47
2022-10-13T09:39:06.575Z,101167.78
2022-10-13T09:41:36.058Z,101150.84
2022-10-13T09:44:13.781Z,101155.41
2022-10-13T09:46:56.359Z,101159.25
2022-10-13T09:49:35.628Z,101162.81
2022-10-13T09:52:15.332Z,101160.28
2022-10-13T09:54:48.346Z,101171.19
2022-10-13T09:57:26.818Z,101160.78
2022-10-13T10:00:03.694Z,101167.91
2022-10-13T10:02:45.207Z,101160.03
2022-10-13T10:05:25.896Z,101169.03
2022-10-13T10:08:07.760Z,101164.88
2022-10-13T10:10:42.089Z,101160.06
2022-10-13T10:13:12.715Z,101158.03
2022-10-13T10:15:53.473Z,101124.81
2022-10-13T10:18:31.112Z,101145.00
2022-10-13T10:21:06.314Z,101139.81
2022-10-13T10:23:43.831Z,101145.63
2022-10-13T10:26:20.757Z,101141.78
2022-10-13T10:29:06.033Z,101137.63
2022-10-13T10:31:59.037Z,101136.84
2022-10-13T10:34:37.739Z,101137.63
2022-10-13T10:37:21.285Z,101141.97
2022-10-13T10:40:04.728Z,101125.09
2022-10-13T10:43:15.368Z,101145.13
2022-10-13T10:45:45.203Z,101134.19
2022-10-13T10:48:20.940Z,101129.84
2022-10-13T10:50:55.956Z,101124.25
2022-10-13T10:53:35.111Z,101121.13
2022-10-13T10:56:13.833Z,101111.25
2022-10-13T10:58:53.727Z,101112.06
2022-10-13T11:01:34.051Z,101097.91
2022-10-13T11:04:31.907Z,101081.66
2022-10-13T11:06:59.922Z,101091.47
2022-10-13T11:10:03.202Z,101095.78
2022-10-13T11:13:04.347Z,101094.06
2022-10-13T11:15:43.471Z,101083.31
2022-10-13T11:21:15.020Z,101079.88
2022-10-13T11:23:48.995Z,101066.13
2022-10-13T11:29:40.720Z,101061.56
2022-10-13T11:32:55.346Z,101060.56
2022-10-13T11:35:29.745Z,101059.53
2022-10-13T11:38:24.463Z,101056.16
2022-10-13T11:41:08.161Z,101061.56
2022-10-13T11:43:49.807Z,101047.31
2022-10-13T11:46:27.792Z,101053.94
2022-10-13T11:49:37.004Z,101049.75
2022-10-13T11:52:26.117Z,101049.78
2022-10-13T11:54:58.573Z,101054.78
2022-10-13T11:57:28.309Z,101038.53
2022-10-13T11:59:57.848Z,101034.91
2022-10-13T12:02:30.635Z,101034.31
2022-10-13T12:05:05.397Z,101029.00
2022-10-13T12:07:48.770Z,101024.91
2022-10-13T12:10:21.603Z,101032.66
2022-10-13T12:12:51.156Z,101036.22
2022-10-13T12:15:32.941Z,101030.72
2022-10-13T12:18:01.072Z,101034.81
2022-10-13T12:20:32.004Z,101029.63
2022-10-13T12:23:01.426Z,101021.78
2022-10-13T12:25:31.315Z,101019.03
2022-10-13T12:28:01.360Z,101023.03
2022-10-13T12:30:31.126Z,101017.84
2022-10-13T12:33:00.714Z,101006.13
2022-10-13T12:35:33.250Z,101013.75
2022-10-13T12:38:07.877Z,101011.84
2022-10-13T12:40:36.291Z,101014.06
2022-10-13T12:43:05.437Z,101012.75
2022-10-13T12:45:35.447Z,101003.78
2022-10-13T12:48:03.285Z,101010.75
2022-10-13T12:50:42.456Z,101005.97
2022-10-13T12:53:18.647Z,101001.31
2022-10-13T12:55:58.488Z,101004.13
2022-10-13T12:58:29.964Z,100999.56
2022-10-13T13:01:22.754Z,100993.13
2022-10-13T13:03:56.433Z,100968.97
2022-10-13T13:06:34.851Z,100995.53
2022-10-13T13:09:32.200Z,100998.44
2022-10-13T13:12:23.749Z,100999.94
2022-10-13T13:14:55.226Z,100980.91
2022-10-13T13:17:57.089Z,100994.19
2022-10-13T13:20:28.007Z,100992.66
2022-10-13T13:22:56.270Z,100987.78
2022-10-13T13:25:26.209Z,100998.41
2022-10-13T13:27:54.508Z,100986.16
2022-10-13T13:30:24.026Z,100996.88
2022-10-13T13:32:52.130Z,100987.81
2022-10-13T13:35:20.048Z,100981.06
2022-10-13T13:37:50.467Z,100956.81
2022-10-13T13:40:21.121Z,100983.81
2022-10-13T13:42:50.320Z,100986.69
2022-10-13T13:45:20.237Z,100992.88
2022-10-13T13:47:51.448Z,100985.78
2022-10-13T13:50:23.687Z,100973.50
2022-10-13T13:52:57.349Z,100987.88
2022-10-13T13:55:25.888Z,100983.16
2022-10-13T13:57:55.025Z,100980.50
2022-10-13T14:00:23.921Z,100985.47
2022-10-13T14:02:56.556Z,100986.78
2022-10-13T14:05:24.707Z,100988.31
2022-10-13T14:07:54.891Z,100977.81
2022-10-13T14:10:22.768Z,100982.66
2022-10-13T14:12:50.690Z,100959.91
2022-10-13T14:15:19.882Z,100983.78
2022-10-13T14:17:47.671Z,100970.31
2022-10-13T14:20:15.578Z,100972.19
2022-10-13T14:22:45.507Z,100964.78
2022-10-13T14:25:15.146Z,100963.22
2022-10-13T14:27:42.950Z,100967.22
2022-10-13T14:30:11.954Z,100919.53
2022-10-13T14:32:41.254Z,100956.63
2022-10-13T14:35:09.632Z,100953.94
2022-10-13T14:37:37.819Z,100958.38
2022-10-13T14:40:06.669Z,100947.31
2022-10-13T14:42:39.143Z,100939.47
2022-10-13T14:45:08.272Z,100940.22
2022-10-13T14:47:36.123Z,100943.34
2022-10-13T14:50:05.781Z,100956.81
2022-10-13T14:52:33.556Z,100953.97
2022-10-13T14:55:01.376Z,100957.63
2022-10-13T14:57:29.088Z,100944.34
2022-10-13T15:00:00.877Z,100946.63
2022-10-13T15:02:29.878Z,100947.31
2022-10-13T15:05:05.901Z,100947.75
2022-10-13T15:07:41.478Z,100949.97
2022-10-13T15:10:09.890Z,100949.75
2022-10-13T15:12:37.786Z,100946.19
2022-10-13T15:15:06.391Z,100952.03
2022-10-13T15:17:34.222Z,100946.19
2022-10-13T15:20:01.941Z,100945.06
2022-10-13T15:22:31.261Z,100913.09
2022-10-13T15:24:59.468Z,100941.09
2022-10-13T15:27:27.509Z,100946.38
2022-10-13T15:29:55.358Z,100950.66
2022-10-13T15:32:23.438Z,100945.44
2022-10-13T15:34:55.805Z,100959.59
2022-10-13T15:37:23.565Z,100908.84
2022-10-13T15:39:57.234Z,100948.31
2022-10-13T15:42:25.612Z,100945.84
2022-10-13T15:45:10.864Z,100941.69
2022-10-13T15:47:39.522Z,100932.47
2022-10-13T15:50:08.290Z,100938.63
2022-10-13T15:52:39.337Z,100936.38
2022-10-13T15:55:09.758Z,100931.69
2022-10-13T15:57:37.678Z,100939.41
2022-10-13T16:00:07.456Z,100939.31
2022-10-13T16:02:46.059Z,100910.19
2022-10-13T16:05:13.937Z,100908.19
2022-10-13T16:07:42.384Z,100921.47
2022-10-13T16:10:13.799Z,100940.84
2022-10-13T16:12:45.618Z,100939.97
2022-10-13T16:15:18.411Z,100935.66
2022-10-13T16:17:46.385Z,100933.75
2022-10-13T16:20:14.348Z,100932.50
2022-10-13T16:22:42.461Z,100929.75
2022-10-13T16:25:11.979Z,100931.28
2022-10-13T16:27:44.007Z,100939.41
2022-10-13T16:30:13.162Z,100940.94
2022-10-13T16:32:41.222Z,100932.00
2022-10-13T16:35:09.494Z,100937.75
2022-10-13T16:37:37.221Z,100937.38
2022-10-13T16:40:05.441Z,100945.25
2022-10-13T16:42:34.782Z,100946.53
2022-10-13T16:45:02.742Z,100937.94
2022-10-13T16:47:30.567Z,100936.13
2022-10-13T16:49:58.354Z,100930.06
2022-10-13T16:52:26.170Z,100936.53
2022-10-13T16:54:53.947Z,100940.88
2022-10-13T16:57:22.006Z,100946.31
2022-10-13T16:59:51.490Z,100938.09
2022-10-13T17:02:19.309Z,100938.22
2022-10-13T17:04:49.270Z,100939.22
2022-10-13T17:07:20.257Z,100941.63
2022-10-13T17:09:55.911Z,100938.38
2022-10-13T17:12:23.687Z,100944.81
2022-10-13T17:14:52.876Z,100945.94
2022-10-13T17:17:21.023Z,100947.09
2022-10-13T17:19:49.227Z,100945.94
2022-10-13T17:22:17.077Z,100941.91
2022-10-13T17:24:48.194Z,100944.44
2022-10-13T17:27:16.549Z,100934.41
2022-10-13T17:29:46.860Z,100933.94
2022-10-13T17:32:16.048Z,100941.38
2022-10-13T17:34:44.099Z,100942.88
2022-10-13T17:37:14.370Z,100938.72
2022-10-13T17:39:42.298Z,100938.59
2022-10-13T17:42:10.063Z,100953.41
2022-10-13T17:44:37.824Z,100954.69
2022-10-13T17:47:07.138Z,100959.38
2022-10-13T17:49:36.428Z,100955.47
2022-10-13T17:52:04.215Z,100950.63
2022-10-13T17:54:31.939Z,100964.09
2022-10-13T17:56:59.707Z,100934.19
2022-10-13T17:59:28.689Z,100950.63
2022-10-13T18:01:56.523Z,100951.78
2022-10-13T18:04:24.428Z,100953.69
2022-10-13T18:06:54.070Z,100958.34
2022-10-13T18:09:24.398Z,100952.91
2022-10-13T18:11:54.741Z,100948.47
2022-10-13T18:14:25.365Z,100928.28
2022-10-13T18:16:53.919Z,100953.69
2022-10-13T18:19:22.288Z,100958.59
2022-10-13T18:21:50.683Z,100957.47
2022-10-13T18:24:20.401Z,100956.97
2022-10-13T18:26:48.955Z,100965.84
2022-10-13T18:29:16.706Z,100962.69
2022-10-13T18:31:44.813Z,100959.25
2022-10-13T18:34:14.308Z,100960.03
2022-10-13T18:36:43.747Z,100965.47
2022-10-13T18:39:13.734Z,100958.47
2022-10-13T18:41:44.818Z,100965.22
2022-10-13T18:44:12.927Z,100959.75
2022-10-13T18:46:42.542Z,100965.09
2022-10-13T18:49:13.512Z,100963.94
2022-10-13T18:51:43.101Z,100959.63
2022-10-13T18:54:11.466Z,100936.72
2022-10-13T18:56:39.699Z,100960.53
2022-10-13T18:59:15.015Z,100964.59
2022-10-13T19:01:49.907Z,100961.91
2022-10-13T19:04:18.067Z,100963.56
2022-10-13T19:06:46.672Z,100937.59
2022-10-13T19:09:17.442Z,100963.16
2022-10-13T19:11:45.367Z,100959.91
2022-10-13T19:14:18.358Z,100958.88
2022-10-13T19:16:46.220Z,100960.28
2022-10-13T19:19:14.341Z,100967.09
2022-10-13T19:21:42.221Z,100967.88
2022-10-13T19:24:10.757Z,100960.00
2022-10-13T19:26:39.438Z,100949.00
2022-10-13T19:29:09.400Z,100963.94
2022-10-13T19:31:39.824Z,100964.66
2022-10-13T19:34:11.864Z,100963.69
2022-10-13T19:36:41.484Z,100965.31
2022-10-13T19:39:14.760Z,100967.72
2022-10-13T19:41:42.806Z,100969.88
2022-10-13T19:44:10.813Z,100966.31
2022-10-13T19:46:44.145Z,100963.66
2022-10-13T19:49:13.997Z,100970.34
2022-10-13T19:51:45.970Z,100973.47
2022-10-13T19:54:14.578Z,100969.06
2022-10-13T19:56:47.176Z,100974.00
2022-10-13T19:59:15.984Z,100968.66
2022-10-13T20:01:45.424Z,100971.81
2022-10-13T20:04:18.373Z,100956.63
2022-10-13T20:06:46.291Z,100974.88
2022-10-13T20:09:14.324Z,100968.91
2022-10-13T20:11:42.305Z,100969.63
2022-10-13T20:14:10.315Z,100963.84
2022-10-13T20:16:38.290Z,100963.72
2022-10-13T20:19:07.881Z,100951.03
2022-10-13T20:21:35.766Z,100972.06
2022-10-13T20:24:03.652Z,100974.59
2022-10-13T20:26:31.496Z,100972.81
2022-10-13T20:29:00.519Z,100973.69
2022-10-13T20:31:28.615Z,100977.00
2022-10-13T20:33:57.592Z,100973.44
2022-10-13T20:36:38.368Z,100965.19
2022-10-13T20:39:11.903Z,100968.22
2022-10-13T20:41:39.947Z,100962.00
2022-10-13T20:44:07.748Z,100960.22
2022-10-13T20:46:41.594Z,100966.03
2022-10-13T20:49:11.920Z,100959.97
2022-10-13T20:51:48.164Z,100960.22
2022-10-13T20:54:17.014Z,100956.81
2022-10-13T20:57:03.406Z,100957.06
2022-10-13T20:59:31.367Z,100957.97
2022-10-13T21:01:59.119Z,100952.41
2022-10-13T21:04:30.091Z,100954.66
2022-10-13T21:06:59.396Z,100956.34
2022-10-13T21:09:27.788Z,100951.88
2022-10-13T21:11:58.560Z,100948.94
2022-10-13T21:14:27.095Z,100957.53
2022-10-13T21:16:55.238Z,100960.06
2022-10-13T21:19:29.186Z,100954.25
2022-10-13T21:21:59.230Z,100923.81
2022-10-13T21:24:31.150Z,100956.66
2022-10-13T21:26:59.321Z,100938.66
2022-10-13T21:29:34.808Z,100948.66
2022-10-13T21:32:02.704Z,100921.13
2022-10-13T21:34:30.670Z,100950.53
2022-10-13T21:36:58.504Z,100939.38
2022-10-13T21:39:26.438Z,100948.63
2022-10-13T21:41:55.791Z,100945.34
2022-10-13T21:44:39.361Z,100956.72
2022-10-13T21:47:10.513Z,100951.94
2022-10-13T21:49:38.785Z,100950.56
2022-10-13T21:52:06.720Z,100958.56
2022-10-13T21:54:34.602Z,100949.06
2022-10-13T21:57:03.926Z,100958.69
2022-10-13T21:59:31.729Z,100955.25
2022-10-13T22:01:59.607Z,100945.91
2022-10-13T22:04:27.769Z,100957.03
2022-10-13T22:06:59.004Z,100949.59
2022-10-13T22:09:27.088Z,100949.44
2022-10-13T22:11:59.638Z,100949.97
2022-10-13T22:14:31.793Z,100965.38
2022-10-13T22:16:59.624Z,100956.03
2022-10-13T22:19:27.568Z,100948.16
2022-10-13T22:21:55.301Z,100945.63
2022-10-13T22:24:23.361Z,100949.06
2022-10-13T22:26:51.740Z,100938.66
2022-10-13T22:29:23.826Z,100937.03
2022-10-13T22:31:56.814Z,100940.44
2022-10-13T22:34:25.905Z,100944.38
2022-10-13T22:36:54.677Z,100937.38
2022-10-13T22:39:23.389Z,100940.81
2022-10-13T22:41:54.201Z,100935.34
2022-10-13T22:44:24.839Z,100939.50
2022-10-13T22:47:01.500Z,100936.84
2022-10-13T22:49:33.277Z,100940.03
2022-10-13T22:52:01.229Z,100929.84
2022-10-13T22:54:29.986Z,100934.63
2022-10-13T22:57:00.875Z,100926.31
2022-10-13T22:59:28.920Z,100931.09
2022-10-13T23:01:58.219Z,100936.16
2022-10-13T23:04:26.395Z,100933.63
2022-10-13T23:06:54.215Z,100930.47
2022-10-13T23:09:22.114Z,100934.78
2022-10-13T23:11:50.038Z,100927.94
2022-10-13T23:14:19.860Z,100928.06
2022-10-13T23:16:53.656Z,100928.84
2022-10-13T23:19:22.919Z,100904.88
2022-10-13T23:21:51.202Z,100930.59
2022-10-13T23:24:21.246Z,100929.97
2022-10-13T23:26:54.438Z,100927.44
2022-10-13T23:29:24.744Z,100928.06
2022-10-13T23:31:55.588Z,100924.66
2022-10-13T23:34:25.384Z,100919.63
2022-10-13T23:36:53.102Z,100922.16
2022-10-13T23:39:20.951Z,100919.47
2022-10-13T23:41:48.808Z,100886.63
2022-10-13T23:44:20.103Z,100914.28
2022-10-13T23:46:48.680Z,100918.72
2022-10-13T23:49:24.947Z,100922.28
2022-10-13T23:51:54.231Z,100869.84
2022-10-13T23:54:28.537Z,100903.97
2022-10-13T23:56:58.528Z,100912.41
2022-10-13T23:59:26.728Z,100907.34
